Time;durP1;ratioP1;P1;durP2;ratioP2;P2;SDS_P1;SDS_P2;PMS_P1;PMS_P2;Temp;Humidity;BMP_temperature;BMP_pressure;BME280_temperature;BME280_humidity;BME280_pressure;Samples;Min_cycle;Max_cycle;Signal;HPM_P1;HPM_P2
2023/08/02 00:02:14;;;;;;;81.93;37.57;;;17.30;99.90;;;;;;5019848;28;20173;-84
2023/08/02 00:04:41;;;;;;;83.40;39.07;;;17.30;99.90;;;;;;5019375;28;20265;-84
2023/08/02 00:07:07;;;;;;;86.57;41.40;;;17.20;99.90;;;;;;5018886;28;20158;-83
2023/08/02 00:09:33;;;;;;;81.77;36.23;;;17.30;99.90;;;;;;5019240;28;20417;-84
2023/08/02 00:11:59;;;;;;;83.27;35.53;;;17.30;99.90;;;;;;5019215;28;20397;-83
2023/08/02 00:14:25;;;;;;;82.90;37.77;;;17.30;99.90;;;;;;5018872;28;20463;-83
2023/08/02 00:16:51;;;;;;;81.73;36.00;;;17.40;99.90;;;;;;5018687;28;20444;-84
2023/08/02 00:19:17;;;;;;;84.57;43.90;;;17.40;99.90;;;;;;5018269;28;20425;-84
2023/08/02 00:21:43;;;;;;;88.63;51.33;;;17.40;99.90;;;;;;5018646;28;20201;-83
2023/08/02 00:24:10;;;;;;;87.63;51.50;;;17.30;99.90;;;;;;5019032;28;20648;-83
2023/08/02 00:26:35;;;;;;;85.57;45.30;;;17.40;99.90;;;;;;5018598;28;20436;-84
2023/08/02 00:29:01;;;;;;;85.80;46.63;;;17.40;99.90;;;;;;5018752;28;20460;-84
2023/08/02 00:31:27;;;;;;;88.50;51.43;;;17.40;99.90;;;;;;5018587;28;20176;-84
2023/08/02 00:33:53;;;;;;;88.63;52.30;;;17.40;99.90;;;;;;5019178;28;20162;-83
2023/08/02 00:36:18;;;;;;;91.47;53.53;;;17.30;99.90;;;;;;5019435;28;20192;-83
2023/08/02 00:38:44;;;;;;;90.10;57.00;;;17.40;99.90;;;;;;5018815;28;20201;-84
2023/08/02 00:41:10;;;;;;;89.77;55.00;;;17.30;99.90;;;;;;5018512;28;20172;-83
2023/08/02 00:43:46;;;;;;;91.90;62.67;;;17.40;99.90;;;;;;5000836;28;20170;-83
2023/08/02 00:46:17;;;;;;;92.20;58.97;;;17.30;99.90;;;;;;5001409;28;20400;-84
2023/08/02 00:48:46;;;;;;;90.00;56.37;;;17.40;99.90;;;;;;5000517;28;20847;-84
2023/08/02 00:51:15;;;;;;;90.13;58.30;;;17.30;99.90;;;;;;5017862;28;20397;-83
2023/08/02 00:53:42;;;;;;;90.33;62.33;;;17.40;99.90;;;;;;5018467;28;20487;-84
2023/08/02 00:56:08;;;;;;;91.47;63.03;;;17.30;99.90;;;;;;5017991;28;20447;-83
2023/08/02 00:58:33;;;;;;;89.57;61.00;;;17.30;99.90;;;;;;5017631;28;20424;-84
2023/08/02 01:01:07;;;;;;;89.90;57.50;;;17.30;99.90;;;;;;5017682;28;20177;-83
2023/08/02 01:03:36;;;;;;;91.50;65.07;;;17.30;99.90;;;;;;5018060;28;20149;-83
2023/08/02 01:06:14;;;;;;;91.13;59.23;;;17.30;99.90;;;;;;5017614;28;20405;-84
2023/08/02 01:08:44;;;;;;;92.67;66.13;;;17.30;99.90;;;;;;5018116;28;20452;-84
2023/08/02 01:11:19;;;;;;;91.80;62.03;;;17.20;99.90;;;;;;5017877;28;20413;-83
2023/08/02 01:13:50;;;;;;;93.73;62.90;;;17.30;99.90;;;;;;5017413;28;20389;-83
2023/08/02 01:16:17;;;;;;;94.97;65.83;;;17.20;99.90;;;;;;5017294;28;20447;-84
2023/08/02 01:18:43;;;;;;;93.80;66.00;;;17.20;99.90;;;;;;5017884;28;20840;-84
2023/08/02 01:21:09;;;;;;;96.50;75.53;;;17.20;99.90;;;;;;5017471;28;20408;-83
2023/08/02 01:23:35;;;;;;;94.70;70.53;;;17.20;99.90;;;;;;5017949;28;20186;-84
2023/08/02 01:26:04;;;;;;;103.73;84.87;;;17.20;99.90;;;;;;5017996;28;20299;-84
2023/08/02 01:28:35;;;;;;;99.40;84.13;;;17.20;99.90;;;;;;5017445;28;20189;-84
2023/08/02 01:31:01;;;;;;;106.63;88.40;;;17.10;99.90;;;;;;4999935;28;20413;-83
2023/08/02 01:33:28;;;;;;;103.07;84.77;;;17.10;99.90;;;;;;5017731;28;20763;-83
2023/08/02 01:35:54;;;;;;;100.70;83.43;;;17.20;99.90;;;;;;4999874;28;20547;-83
2023/08/02 01:38:20;;;;;;;104.10;84.93;;;17.20;99.90;;;;;;5017065;28;20401;-83
2023/08/02 01:40:46;;;;;;;97.33;75.67;;;17.20;99.90;;;;;;5017358;28;20940;-84
2023/08/02 01:43:11;;;;;;;94.73;65.73;;;17.30;99.90;;;;;;5017260;28;20394;-83
2023/08/02 01:45:37;;;;;;;94.40;69.83;;;17.30;99.90;;;;;;5017259;28;20166;-83
2023/08/02 01:48:03;;;;;;;91.13;59.83;;;17.20;99.90;;;;;;4999412;28;20606;-84
2023/08/02 01:50:29;;;;;;;92.93;61.37;;;17.30;99.90;;;;;;5016874;28;20190;-84
2023/08/02 01:52:54;;;;;;;88.53;55.27;;;17.30;99.90;;;;;;5016506;28;20777;-84
2023/08/02 01:55:20;;;;;;;87.37;49.37;;;17.20;99.90;;;;;;5016937;28;20675;-84
2023/08/02 01:57:46;;;;;;;91.73;62.57;;;17.20;99.90;;;;;;5016962;28;20211;-84
2023/08/02 02:00:12;;;;;;;96.93;66.77;;;17.10;99.90;;;;;;5017169;28;20185;-84
2023/08/02 02:02:39;;;;;;;86.07;45.93;;;17.20;99.90;;;;;;4999340;28;20170;-83
2023/08/02 02:05:05;;;;;;;92.60;63.37;;;17.20;99.90;;;;;;4999679;28;20447;-83
2023/08/02 02:07:31;;;;;;;90.27;53.70;;;17.10;99.90;;;;;;4998904;28;20943;-83
2023/08/02 02:09:56;;;;;;;92.67;61.00;;;17.20;99.90;;;;;;5017206;28;20417;-83
2023/08/02 02:12:22;;;;;;;96.37;70.20;;;17.20;99.90;;;;;;5016712;28;20170;-83
2023/08/02 02:14:48;;;;;;;97.80;78.57;;;17.20;99.90;;;;;;5016641;28;20166;-83
2023/08/02 02:17:13;;;;;;;107.53;85.30;;;17.30;99.90;;;;;;4998541;28;20634;-83
2023/08/02 02:19:39;;;;;;;106.03;90.93;;;17.10;99.90;;;;;;5016242;28;20185;-84
2023/08/02 02:22:05;;;;;;;106.70;89.73;;;17.10;99.90;;;;;;5109530;22;20226;-83
2023/08/02 02:24:30;;;;;;;108.53;87.60;;;17.00;99.90;;;;;;5019137;28;20595;-83
2023/08/02 02:26:56;;;;;;;105.70;86.83;;;17.00;99.90;;;;;;5019098;28;20241;-83
2023/08/02 02:29:23;;;;;;;113.23;101.13;;;17.00;99.90;;;;;;5018502;28;20196;-83
2023/08/02 02:31:48;;;;;;;108.40;95.43;;;16.90;99.90;;;;;;5019011;28;20604;-83
2023/08/02 02:34:14;;;;;;;121.80;109.67;;;16.90;99.90;;;;;;5019361;28;20447;-83
2023/08/02 02:36:40;;;;;;;122.07;109.83;;;16.90;99.90;;;;;;5018264;28;20633;-83
2023/08/02 02:39:05;;;;;;;127.93;115.00;;;16.90;99.90;;;;;;5018462;28;20188;-83
2023/08/02 02:41:31;;;;;;;137.97;124.37;;;16.80;99.90;;;;;;5020405;28;20166;-83
2023/08/02 02:43:57;;;;;;;138.63;125.47;;;16.80;99.90;;;;;;5022696;28;20174;-83
2023/08/02 02:46:22;;;;;;;147.57;133.93;;;16.80;99.90;;;;;;5022439;28;20165;-84
2023/08/02 02:48:48;;;;;;;154.90;140.60;;;16.80;99.90;;;;;;5022321;28;20186;-83
2023/08/02 02:51:14;;;;;;;153.10;139.57;;;16.70;99.90;;;;;;5022823;28;20173;-83
2023/08/02 02:53:40;;;;;;;159.70;145.87;;;16.70;99.90;;;;;;5022724;28;20168;-83
2023/08/02 02:56:05;;;;;;;146.37;132.83;;;16.70;99.90;;;;;;5004613;28;20190;-83
2023/08/02 02:58:31;;;;;;;166.37;152.43;;;16.70;99.90;;;;;;5022073;28;20863;-83
2023/08/02 03:00:57;;;;;;;166.10;152.23;;;16.60;99.90;;;;;;5022242;28;20162;-83
2023/08/02 03:03:23;;;;;;;156.70;143.33;;;16.60;99.90;;;;;;5004907;28;20173;-83
2023/08/02 03:05:49;;;;;;;147.53;134.50;;;16.60;99.90;;;;;;5022130;28;20431;-83
2023/08/02 03:08:15;;;;;;;152.77;139.50;;;16.60;99.90;;;;;;5022603;28;20472;-85
2023/08/02 03:10:40;;;;;;;147.23;134.13;;;16.60;99.90;;;;;;5022579;28;20173;-85
2023/08/02 03:13:06;;;;;;;149.00;135.63;;;16.60;99.90;;;;;;5021875;28;20166;-85
2023/08/02 03:15:32;;;;;;;139.93;127.17;;;16.60;99.90;;;;;;5021417;28;20192;-85
2023/08/02 03:17:57;;;;;;;146.43;133.63;;;16.60;99.90;;;;;;5022100;28;20168;-85
2023/08/02 03:20:23;;;;;;;143.57;130.80;;;16.60;99.90;;;;;;5022333;28;20174;-85
2023/08/02 03:22:49;;;;;;;135.50;122.90;;;16.60;99.90;;;;;;5021625;28;20199;-85
2023/08/02 03:25:15;;;;;;;129.43;116.93;;;16.60;99.90;;;;;;5021326;28;20518;-83
2023/08/02 03:27:40;;;;;;;137.47;124.87;;;16.50;99.90;;;;;;5003971;28;20166;-83
2023/08/02 03:30:07;;;;;;;142.53;129.77;;;16.50;99.90;;;;;;5021705;28;20190;-83
2023/08/02 03:32:32;;;;;;;135.20;122.47;;;16.50;99.90;;;;;;5021614;28;20257;-83
2023/08/02 03:34:58;;;;;;;135.33;122.80;;;16.50;99.90;;;;;;5021419;28;20430;-83
2023/08/02 03:37:24;;;;;;;146.30;133.03;;;16.60;99.90;;;;;;5021548;28;20170;-83
2023/08/02 03:39:49;;;;;;;142.17;129.13;;;16.60;99.90;;;;;;5021660;28;20189;-85
2023/08/02 03:42:15;;;;;;;150.60;137.40;;;16.60;99.90;;;;;;5021471;28;20177;-85
2023/08/02 03:44:41;;;;;;;137.07;124.43;;;16.60;99.90;;;;;;5021952;28;20612;-85
2023/08/02 03:47:06;;;;;;;141.03;128.13;;;16.60;99.90;;;;;;5021409;28;20194;-85
2023/08/02 03:49:32;;;;;;;148.80;135.23;;;16.60;99.90;;;;;;5021614;28;20693;-85
2023/08/02 03:52:01;;;;;;;134.10;121.57;;;16.60;99.90;;;;;;5003893;28;20177;-85
2023/08/02 03:54:27;;;;;;;131.57;119.03;;;16.50;99.90;;;;;;5021307;28;20626;-85
2023/08/02 03:56:52;;;;;;;122.93;110.83;;;16.50;99.90;;;;;;5021644;28;20455;-85
2023/08/02 03:59:18;;;;;;;144.13;131.23;;;16.50;99.90;;;;;;5021112;28;20196;-85
2023/08/02 04:01:44;;;;;;;142.87;129.83;;;16.50;99.90;;;;;;5003286;28;20252;-86
2023/08/02 04:04:09;;;;;;;140.83;128.03;;;16.50;99.90;;;;;;5021545;28;20261;-85
2023/08/02 04:06:35;;;;;;;121.77;109.77;;;16.50;99.90;;;;;;5021546;28;20664;-85
2023/08/02 04:09:01;;;;;;;124.47;112.07;;;16.60;99.90;;;;;;5021069;28;20218;-85
2023/08/02 04:11:27;;;;;;;118.27;106.27;;;16.50;99.90;;;;;;5021033;28;20640;-85
2023/08/02 04:13:52;;;;;;;114.20;102.40;;;16.60;99.90;;;;;;5020524;28;20165;-85
2023/08/02 04:16:18;;;;;;;127.23;115.07;;;16.50;99.90;;;;;;5021345;28;20224;-85
2023/08/02 04:18:44;;;;;;;122.07;109.67;;;16.50;99.90;;;;;;5020241;28;20189;-85
2023/08/02 04:21:09;;;;;;;115.77;104.00;;;16.50;99.90;;;;;;5020701;28;20188;-85
2023/08/02 04:23:35;;;;;;;109.30;95.97;;;16.60;99.90;;;;;;5020567;28;20171;-85
2023/08/02 04:26:09;;;;;;;127.43;114.77;;;16.60;99.90;;;;;;5020301;28;20197;-85
2023/08/02 04:28:35;;;;;;;121.30;109.17;;;16.60;99.90;;;;;;5020794;28;20184;-86
2023/08/02 04:31:01;;;;;;;121.80;109.70;;;16.60;99.90;;;;;;5021179;28;20423;-85
2023/08/02 04:33:27;;;;;;;113.57;101.70;;;16.60;99.90;;;;;;5020757;28;20169;-85
2023/08/02 04:35:52;;;;;;;118.67;106.90;;;16.60;99.90;;;;;;5020469;28;20190;-84
2023/08/02 04:38:18;;;;;;;109.47;92.47;;;16.60;99.90;;;;;;5019703;28;20409;-84
2023/08/02 04:40:45;;;;;;;123.50;110.93;;;16.60;99.90;;;;;;5002777;28;20223;-84
2023/08/02 04:43:11;;;;;;;113.07;100.87;;;16.50;99.90;;;;;;5019860;28;20261;-84
2023/08/02 04:45:37;;;;;;;111.83;100.23;;;16.50;99.90;;;;;;5019827;28;20413;-84
2023/08/02 04:48:02;;;;;;;117.53;105.63;;;16.50;99.90;;;;;;5020417;28;20216;-84
2023/08/02 04:50:31;;;;;;;123.63;111.17;;;16.60;99.90;;;;;;5019873;28;20166;-84
2023/08/02 04:52:57;;;;;;;112.13;100.23;;;16.60;99.90;;;;;;5019424;28;20166;-84
2023/08/02 04:55:23;;;;;;;124.90;112.70;;;16.60;99.90;;;;;;5019810;28;20875;-84
2023/08/02 04:57:48;;;;;;;105.97;92.33;;;16.60;99.90;;;;;;5019792;28;20249;-84
2023/08/02 05:00:14;;;;;;;111.20;99.37;;;16.60;99.90;;;;;;5019525;28;20185;-83
2023/08/02 05:02:40;;;;;;;104.27;85.43;;;16.60;99.90;;;;;;5019744;28;20265;-83
2023/08/02 05:05:06;;;;;;;105.60;83.57;;;16.60;99.90;;;;;;5019247;28;20439;-83
2023/08/02 05:07:33;;;;;;;105.60;86.97;;;16.60;99.90;;;;;;5001922;28;20170;-84
2023/08/02 05:10:03;;;;;;;107.00;92.60;;;16.60;99.90;;;;;;5020014;28;20494;-84
2023/08/02 05:12:33;;;;;;;99.63;81.23;;;16.60;99.90;;;;;;5002502;28;20505;-84
2023/08/02 05:14:59;;;;;;;102.27;79.77;;;16.70;99.90;;;;;;5019132;28;20780;-84
2023/08/02 05:17:27;;;;;;;109.53;93.67;;;16.80;99.90;;;;;;5020320;28;20409;-85
2023/08/02 05:19:53;;;;;;;103.33;84.23;;;16.80;99.90;;;;;;5002037;28;20197;-84
2023/08/02 05:22:19;;;;;;;109.73;97.83;;;16.80;99.90;;;;;;5002244;28;20420;-84
2023/08/02 05:24:44;;;;;;;119.97;107.30;;;16.90;99.90;;;;;;5002100;28;20267;-84
2023/08/02 05:27:10;;;;;;;127.93;115.27;;;16.90;99.90;;;;;;5019695;28;20181;-84
2023/08/02 05:29:36;;;;;;;125.33;112.80;;;17.00;99.90;;;;;;5002046;28;20193;-84
2023/08/02 05:32:02;;;;;;;122.23;110.13;;;17.00;99.90;;;;;;5019373;28;20204;-83
2023/08/02 05:34:27;;;;;;;121.73;108.97;;;17.10;99.90;;;;;;5001839;28;20716;-83
2023/08/02 05:36:53;;;;;;;128.53;115.87;;;17.10;99.90;;;;;;5019110;28;20253;-83
2023/08/02 05:39:19;;;;;;;121.40;108.93;;;17.10;99.90;;;;;;5019460;28;20188;-83
2023/08/02 05:41:44;;;;;;;108.00;90.73;;;17.10;99.90;;;;;;5001666;28;20177;-82
2023/08/02 05:44:10;;;;;;;118.90;106.23;;;17.10;99.90;;;;;;5018345;28;20185;-82
2023/08/02 05:46:36;;;;;;;126.20;113.83;;;17.20;99.90;;;;;;5018786;28;20206;-82
2023/08/02 05:49:02;;;;;;;107.60;96.13;;;17.20;99.90;;;;;;5018608;28;20273;-82
2023/08/02 05:51:27;;;;;;;110.57;95.03;;;17.20;99.90;;;;;;5001177;28;20180;-82
2023/08/02 05:53:53;;;;;;;109.30;94.07;;;17.20;99.90;;;;;;5019323;28;20405;-82
2023/08/02 05:56:19;;;;;;;106.77;87.43;;;17.20;99.90;;;;;;5018713;28;20251;-82
2023/08/02 05:58:44;;;;;;;113.50;100.20;;;17.20;99.90;;;;;;5000888;28;20217;-82
2023/08/02 06:01:10;;;;;;;111.40;98.87;;;17.20;99.90;;;;;;5000848;28;20166;-82
2023/08/02 06:03:36;;;;;;;108.93;94.20;;;17.20;99.90;;;;;;5000542;28;20262;-82
2023/08/02 06:06:02;;;;;;;109.03;86.13;;;17.10;99.90;;;;;;5018949;28;20162;-83
2023/08/02 06:08:28;;;;;;;101.80;80.47;;;17.10;99.90;;;;;;5018406;28;20443;-82
2023/08/02 06:10:54;;;;;;;99.73;64.00;;;17.00;99.90;;;;;;5018099;28;20514;-83
2023/08/02 06:13:20;;;;;;;102.40;80.73;;;17.00;99.90;;;;;;5001136;28;20261;-83
2023/08/02 06:15:45;;;;;;;101.47;70.30;;;16.90;99.90;;;;;;5017469;28;20671;-84
2023/08/02 06:18:11;;;;;;;99.00;66.83;;;17.00;99.90;;;;;;5018764;28;20408;-83
2023/08/02 06:20:37;;;;;;;95.77;63.17;;;16.90;99.90;;;;;;5018123;28;20200;-83
2023/08/02 06:23:03;;;;;;;91.53;57.40;;;17.00;99.90;;;;;;5018343;28;20158;-84
2023/08/02 06:25:28;;;;;;;93.37;59.07;;;17.10;99.90;;;;;;5018707;28;20174;-84
2023/08/02 06:27:54;;;;;;;98.57;63.33;;;17.10;99.90;;;;;;5018432;28;20537;-84
2023/08/02 06:30:20;;;;;;;89.40;51.97;;;17.10;99.90;;;;;;5019024;28;20518;-84
2023/08/02 06:32:46;;;;;;;93.10;54.47;;;17.10;99.90;;;;;;5019041;28;20170;-83
2023/08/02 06:35:12;;;;;;;93.50;55.70;;;17.00;99.90;;;;;;5018793;28;20192;-84
2023/08/02 06:37:38;;;;;;;100.70;55.70;;;17.00;99.90;;;;;;5017920;28;20244;-84
2023/08/02 06:40:04;;;;;;;104.63;62.33;;;17.00;99.90;;;;;;5000633;28;20451;-85
2023/08/02 06:42:30;;;;;;;96.50;58.80;;;17.00;99.90;;;;;;5019266;28;20225;-85
2023/08/02 06:44:57;;;;;;;97.47;62.37;;;17.00;99.90;;;;;;5019095;28;20428;-85
2023/08/02 06:47:22;;;;;;;96.37;60.30;;;17.00;99.90;;;;;;5001287;28;20169;-84
2023/08/02 06:49:48;;;;;;;98.13;62.80;;;17.00;99.90;;;;;;5018642;28;20769;-84
2023/08/02 06:52:14;;;;;;;101.90;67.93;;;17.00;99.90;;;;;;5018212;28;20395;-85
2023/08/02 06:54:40;;;;;;;102.47;70.80;;;17.00;99.90;;;;;;5018356;28;20614;-86
2023/08/02 06:57:06;;;;;;;112.90;95.23;;;17.10;99.90;;;;;;5019000;28;20448;-86
2023/08/02 06:59:31;;;;;;;109.97;86.07;;;17.00;99.90;;;;;;5002347;28;20662;-86
2023/08/02 07:01:57;;;;;;;110.50;93.43;;;17.10;99.90;;;;;;5020048;28;20433;-85
2023/08/02 07:04:23;;;;;;;112.53;97.97;;;17.20;99.90;;;;;;5001104;28;20170;-86
2023/08/02 07:06:48;;;;;;;88.73;51.87;;;17.20;99.90;;;;;;5019054;28;20169;-86
2023/08/02 07:09:14;;;;;;;116.20;103.57;;;17.30;99.90;;;;;;5019057;28;20186;-85
2023/08/02 07:11:46;;;;;;;108.73;80.97;;;17.30;99.90;;;;;;5018766;28;20537;-85
2023/08/02 07:14:11;;;;;;;108.53;85.00;;;17.40;99.90;;;;;;5001101;28;20416;-86
2023/08/02 07:16:37;;;;;;;121.73;106.43;;;17.40;99.90;;;;;;5001351;28;20444;-86
2023/08/02 07:19:03;;;;;;;107.60;89.33;;;17.60;99.90;;;;;;5018253;28;20657;-86
2023/08/02 07:21:29;;;;;;;103.83;76.57;;;17.60;99.90;;;;;;5017548;28;20178;-86
2023/08/02 07:23:55;;;;;;;105.10;79.70;;;17.70;99.90;;;;;;5000324;28;20170;-85
2023/08/02 07:26:22;;;;;;;101.60;75.57;;;17.60;99.90;;;;;;5019051;28;20420;-85
2023/08/02 07:28:48;;;;;;;95.63;57.83;;;17.70;99.90;;;;;;5021929;28;20503;-85
2023/08/02 07:31:14;;;;;;;99.90;54.37;;;17.80;99.90;;;;;;5021099;28;20429;-85
2023/08/02 07:33:48;;;;;;;94.33;53.53;;;17.80;99.90;;;;;;5022098;28;20405;-86
2023/08/02 07:36:15;;;;;;;87.37;50.57;;;17.80;99.90;;;;;;5003891;28;20441;-85
2023/08/02 07:38:41;;;;;;;89.23;50.57;;;17.80;99.90;;;;;;5004466;28;20530;-83
2023/08/02 07:41:07;;;;;;;92.17;46.60;;;17.70;99.90;;;;;;5004446;28;20416;-85
2023/08/02 07:43:35;;;;;;;93.40;49.03;;;17.70;99.90;;;;;;5021964;28;20405;-85
2023/08/02 07:46:02;;;;;;;94.77;55.20;;;17.80;99.90;;;;;;5021499;28;20401;-86
2023/08/02 07:48:28;;;;;;;98.80;60.10;;;17.80;99.90;;;;;;5003536;28;20436;-85
2023/08/02 07:50:54;;;;;;;99.47;65.33;;;18.00;99.90;;;;;;5004174;28;20803;-84
2023/08/02 07:53:20;;;;;;;97.07;57.47;;;18.10;99.90;;;;;;5020685;28;20411;-85
2023/08/02 07:55:48;;;;;;;85.37;43.77;;;18.20;99.90;;;;;;5021435;28;20809;-84
2023/08/02 07:58:15;;;;;;;93.27;56.07;;;18.20;99.90;;;;;;5021622;28;20166;-86
2023/08/02 08:00:41;;;;;;;89.67;56.07;;;18.20;99.90;;;;;;5021413;28;20409;-85
2023/08/02 08:03:06;;;;;;;92.83;60.87;;;18.20;99.90;;;;;;5021395;28;20400;-85
2023/08/02 08:05:32;;;;;;;87.87;50.03;;;18.20;99.90;;;;;;5021552;28;20170;-85
2023/08/02 08:07:58;;;;;;;93.77;57.03;;;18.30;99.90;;;;;;5021790;28;20268;-86
2023/08/02 08:10:23;;;;;;;86.37;50.63;;;18.40;99.90;;;;;;5021456;28;20188;-87
2023/08/02 08:12:49;;;;;;;90.33;58.37;;;18.50;99.90;;;;;;5021238;28;20169;-86
2023/08/02 08:15:15;;;;;;;89.77;57.30;;;18.50;99.90;;;;;;5021272;28;20201;-85
2023/08/02 08:17:41;;;;;;;86.40;48.33;;;18.50;99.90;;;;;;5021679;28;20193;-85
2023/08/02 08:20:06;;;;;;;89.43;58.23;;;18.70;99.90;;;;;;5021062;28;20212;-85
2023/08/02 08:23:16;;;;;;;102.63;90.13;;;19.00;99.90;;;;;;5091703;22;20713;-84
2023/08/02 08:26:19;;;;;;;;;;;;;;;;;;;;;
2023/08/02 08:29:29;;;;;;;;;;;;;;;;;;;;;
2023/08/02 08:32:56;;;;;;;;;;;;;;;;;;;;;
2023/08/02 08:46:25;;;;;;;138.03;124.90;;;19.00;99.90;;;;;;4960319;28;20454;-83
2023/08/02 08:48:51;;;;;;;143.73;130.93;;;18.90;99.90;;;;;;5019596;28;20507;-83
2023/08/02 08:51:21;;;;;;;144.63;131.50;;;18.90;99.90;;;;;;5019294;28;20393;-83
2023/08/02 08:53:49;;;;;;;152.00;138.90;;;18.80;99.90;;;;;;5001910;28;20170;-83
2023/08/02 08:56:18;;;;;;;148.80;135.80;;;18.90;99.90;;;;;;5019656;28;20453;-83
2023/08/02 08:58:44;;;;;;;147.07;133.77;;;19.00;99.90;;;;;;5019500;28;20859;-83
2023/08/02 09:01:10;;;;;;;136.63;124.13;;;18.90;99.90;;;;;;5019597;28;20464;-82
2023/08/02 09:03:36;;;;;;;156.13;142.67;;;18.80;99.90;;;;;;5019048;28;20399;-81
2023/08/02 09:06:03;;;;;;;147.03;134.07;;;18.80;99.90;;;;;;5017892;28;20496;-82
2023/08/02 09:08:39;;;;;;;143.03;130.20;;;18.80;99.90;;;;;;5001347;28;20194;-83
2023/08/02 09:11:06;;;;;;;129.90;117.47;;;18.70;99.90;;;;;;5001435;28;20438;-82
2023/08/02 09:13:32;;;;;;;132.90;120.50;;;18.70;99.90;;;;;;5018371;28;20401;-82
2023/08/02 09:16:03;;;;;;;109.47;97.63;;;18.70;99.90;;;;;;5018299;28;20475;-82
2023/08/02 09:18:40;;;;;;;95.20;66.27;;;18.60;99.90;;;;;;5017918;28;20193;-82
2023/08/02 09:21:08;;;;;;;93.53;58.33;;;18.50;99.90;;;;;;5019478;28;20472;-82
2023/08/02 09:23:34;;;;;;;100.30;63.70;;;18.60;99.90;;;;;;5018968;28;20442;-82
2023/08/02 09:26:17;;;;;;;88.50;46.47;;;18.80;99.90;;;;;;5019259;28;20401;-82
2023/08/02 09:29:04;;;;;;;87.50;41.17;;;18.90;99.90;;;;;;5001815;28;20189;-83
2023/08/02 09:31:32;;;;;;;86.73;41.00;;;19.00;99.90;;;;;;5018573;28;20823;-83
2023/08/02 09:33:58;;;;;;;85.20;43.90;;;19.20;99.90;;;;;;5019119;28;20397;-83
2023/08/02 09:36:27;;;;;;;86.00;51.80;;;19.20;99.90;;;;;;5019072;28;20448;-83
2023/08/02 09:39:00;;;;;;;88.13;44.80;;;19.30;99.90;;;;;;5018925;28;20190;-83
2023/08/02 09:41:26;;;;;;;87.93;45.57;;;19.30;99.90;;;;;;5018284;28;20404;-83
2023/08/02 09:43:57;;;;;;;82.87;43.03;;;19.50;99.90;;;;;;5018149;28;20905;-83
2023/08/02 09:46:25;;;;;;;87.50;56.10;;;19.60;99.90;;;;;;5000626;28;20550;-84
2023/08/02 09:48:58;;;;;;;97.73;85.63;;;19.90;99.90;;;;;;4999435;28;20433;-84
2023/08/02 09:51:40;;;;;;;107.43;95.63;;;19.90;99.90;;;;;;4999741;28;20418;-84
2023/08/02 09:54:13;;;;;;;127.77;115.63;;;19.90;99.90;;;;;;5019329;28;20768;-84
2023/08/02 09:56:41;;;;;;;137.57;125.00;;;19.90;99.90;;;;;;5018823;28;20488;-84
2023/08/02 09:59:11;;;;;;;151.07;137.40;;;19.80;99.90;;;;;;5019122;28;20421;-84
2023/08/02 10:01:37;;;;;;;146.20;133.30;;;19.70;99.90;;;;;;5018369;28;20496;-84
2023/08/02 10:04:06;;;;;;;137.03;124.47;;;19.80;99.90;;;;;;5001400;28;20479;-84
2023/08/02 10:06:43;;;;;;;130.23;117.73;;;19.60;99.90;;;;;;5018652;28;20410;-84
2023/08/02 10:09:17;;;;;;;128.77;116.47;;;19.70;99.90;;;;;;5001276;28;20575;-84
2023/08/02 10:12:07;;;;;;;132.23;119.83;;;19.70;99.90;;;;;;5018368;28;20472;-84
2023/08/02 10:14:33;;;;;;;131.23;119.00;;;19.80;99.90;;;;;;5018034;28;20389;-84
2023/08/02 10:17:03;;;;;;;126.60;111.30;;;19.90;99.90;;;;;;5018362;28;20480;-84
2023/08/02 10:19:32;;;;;;;131.33;118.57;;;20.10;99.90;;;;;;5019118;28;20455;-84
2023/08/02 10:21:58;;;;;;;135.17;122.47;;;20.40;99.90;;;;;;5001109;28;20433;-84
2023/08/02 10:24:28;;;;;;;129.33;117.13;;;20.40;99.90;;;;;;5018615;28;20408;-84
2023/08/02 10:27:06;;;;;;;123.20;111.20;;;20.70;99.90;;;;;;5018968;28;20431;-84
2023/08/02 10:29:34;;;;;;;161.20;147.70;;;20.80;99.90;;;;;;5000594;28;20474;-84
2023/08/02 10:32:17;;;;;;;142.67;129.67;;;21.00;99.90;;;;;;5018648;28;20900;-84
2023/08/02 10:34:44;;;;;;;115.23;103.40;;;21.10;99.90;;;;;;5018598;28;20405;-83
2023/08/02 10:37:10;;;;;;;98.50;84.80;;;21.30;99.90;;;;;;5018661;28;20448;-84
2023/08/02 10:39:45;;;;;;;90.20;65.43;;;21.40;99.90;;;;;;5001480;28;20534;-85
2023/08/02 10:42:16;;;;;;;87.70;57.97;;;21.60;99.90;;;;;;5019013;28;20197;-84
2023/08/02 10:44:57;;;;;;;92.07;65.27;;;21.70;99.90;;;;;;5017739;28;20408;-83
2023/08/02 10:47:25;;;;;;;94.27;68.97;;;21.70;99.90;;;;;;5017690;28;20429;-83
2023/08/02 10:49:51;;;;;;;96.87;80.27;;;21.40;99.90;;;;;;5017701;28;20456;-83
2023/08/02 10:52:23;;;;;;;97.20;75.37;;;21.50;99.90;;;;;;5017927;28;20492;-83
2023/08/02 10:55:17;;;;;;;92.93;69.57;;;21.60;99.90;;;;;;4999444;28;20473;-83
2023/08/02 10:57:54;;;;;;;92.70;67.80;;;21.60;99.90;;;;;;4997118;28;20413;-83
2023/08/02 11:00:25;;;;;;;88.20;59.17;;;21.80;99.90;;;;;;5017182;28;20408;-83
2023/08/02 11:02:53;;;;;;;106.00;93.87;;;21.90;99.90;;;;;;5003046;28;20404;-83
2023/08/02 11:05:42;;;;;;;104.37;93.10;;;21.90;99.90;;;;;;5021445;28;20396;-83
2023/08/02 11:08:09;;;;;;;93.50;73.53;;;22.10;99.90;;;;;;5022356;28;20379;-83
2023/08/02 11:10:52;;;;;;;85.90;52.33;;;22.30;99.90;;;;;;5021702;28;20420;-83
2023/08/02 11:13:19;;;;;;;91.43;64.97;;;22.50;99.90;;;;;;5022139;28;20421;-83
2023/08/02 11:15:45;;;;;;;97.53;81.77;;;22.40;99.90;;;;;;5022068;28;20459;-83
2023/08/02 11:18:11;;;;;;;93.40;73.00;;;22.40;99.90;;;;;;5021220;28;20392;-83
2023/08/02 11:20:38;;;;;;;96.33;79.60;;;22.20;99.90;;;;;;5022017;28;20415;-83
2023/08/02 11:23:24;;;;;;;101.13;90.03;;;22.20;99.90;;;;;;5021076;28;20435;-83
2023/08/02 11:26:13;;;;;;;106.07;94.90;;;22.40;99.90;;;;;;5020554;28;20503;-84
2023/08/02 11:28:42;;;;;;;93.53;75.47;;;22.40;99.90;;;;;;5020110;28;20435;-83
2023/08/02 11:31:09;;;;;;;93.03;71.87;;;22.20;99.90;;;;;;5019794;28;20400;-83
2023/08/02 11:33:37;;;;;;;90.63;64.50;;;22.60;99.90;;;;;;5019603;28;20900;-83
2023/08/02 11:36:04;;;;;;;94.73;66.97;;;22.90;99.90;;;;;;5002228;28;20459;-83
2023/08/02 11:38:30;;;;;;;100.60;89.67;;;23.10;99.90;;;;;;5020285;28;20416;-83
2023/08/02 11:40:57;;;;;;;112.40;100.97;;;23.20;99.90;;;;;;5019555;28;20867;-83
2023/08/02 11:43:35;;;;;;;116.67;105.03;;;23.20;99.90;;;;;;5020046;28;20401;-83
2023/08/02 11:46:21;;;;;;;99.17;86.63;;;23.30;99.90;;;;;;5020283;28;20804;-83
2023/08/02 11:48:48;;;;;;;92.47;67.97;;;23.10;99.90;;;;;;5019635;28;20916;-83
2023/08/02 11:51:16;;;;;;;112.17;100.73;;;23.00;99.90;;;;;;5019171;28;20401;-83
2023/08/02 11:53:52;;;;;;;117.43;105.83;;;22.90;99.90;;;;;;5018988;28;20405;-83
2023/08/02 11:56:20;;;;;;;113.50;102.07;;;23.10;99.90;;;;;;5019492;28;20526;-83
2023/08/02 11:58:46;;;;;;;99.17;84.67;;;23.40;99.90;;;;;;5018963;28;20788;-83
2023/08/02 12:01:15;;;;;;;87.77;49.50;;;24.00;99.90;;;;;;5001601;28;20412;-83
2023/08/02 12:04:00;;;;;;;115.13;102.87;;;24.50;99.90;;;;;;5018760;28;20397;-83
2023/08/02 12:06:47;;;;;;;91.30;64.37;;;25.20;99.90;;;;;;5019275;28;20405;-83
2023/08/02 12:09:12;;;;;;;78.07;27.60;;;25.40;99.90;;;;;;5000481;28;20440;-83
2023/08/02 12:11:38;;;;;;;71.57;9.93;;;25.30;99.90;;;;;;5018671;28;20397;-83
2023/08/02 12:14:06;;;;;;;75.40;13.27;;;25.00;99.90;;;;;;5018598;28;20197;-83
2023/08/02 12:16:43;;;;;;;73.83;14.77;;;24.60;99.90;;;;;;5018798;28;20452;-83
2023/08/02 12:19:15;;;;;;;72.10;11.80;;;24.60;99.90;;;;;;5018463;28;20421;-83
2023/08/02 12:21:43;;;;;;;73.97;15.43;;;24.50;99.90;;;;;;5001901;28;20421;-82
2023/08/02 12:24:16;;;;;;;73.97;14.77;;;24.40;99.90;;;;;;5018241;28;20436;-83
2023/08/02 12:26:42;;;;;;;72.97;12.30;;;24.20;99.90;;;;;;5001752;28;20852;-82
2023/08/02 12:29:08;;;;;;;75.03;18.97;;;24.20;99.90;;;;;;5018562;28;20479;-82
2023/08/02 12:31:44;;;;;;;77.27;25.23;;;24.30;99.90;;;;;;5018418;28;20824;-83
2023/08/02 12:34:10;;;;;;;74.13;16.20;;;24.40;99.90;;;;;;5018677;28;20400;-83
2023/08/02 12:36:36;;;;;;;75.57;20.40;;;24.40;78.20;;;;;;5017761;28;20535;-82
2023/08/02 12:39:03;;;;;;;75.37;21.73;;;24.40;90.60;;;;;;5018126;28;20451;-83
2023/08/02 12:41:28;;;;;;;74.30;18.37;;;24.30;86.10;;;;;;5000353;28;20401;-82